sensor_id;sensor_type;location;lat;lon;timestamp;temperature;humidity
26599;DHT22;14240;51.064;16.612;2022-12-18T00:01:05;-2.40;99.90
26599;DHT22;14240;51.064;16.612;2022-12-18T00:03:33;-2.40;99.90
26599;DHT22;14240;51.064;16.612;2022-12-18T00:05:59;-2.40;99.90
26599;DHT22;14240;51.064;16.612;2022-12-18T00:08:24;-2.40;99.90
26599;DHT22;14240;51.064;16.612;2022-12-18T00:10:50;-2.40;99.90
26599;DHT22;14240;51.064;16.612;2022-12-18T00:13:16;-2.40;99.90
26599;DHT22;14240;51.064;16.612;2022-12-18T00:15:41;-2.10;99.90
26599;DHT22;14240;51.064;16.612;2022-12-18T00:18:07;-2.40;99.90
26599;DHT22;14240;51.064;16.612;2022-12-18T00:20:38;-2.40;99.90
26599;DHT22;14240;51.064;16.612;2022-12-18T00:23:05;-2.30;99.90
26599;DHT22;14240;51.064;16.612;2022-12-18T00:25:35;-2.30;99.90
26599;DHT22;14240;51.064;16.612;2022-12-18T00:28:01;-2.40;99.90
26599;DHT22;14240;51.064;16.612;2022-12-18T00:30:27;-2.40;99.90
26599;DHT22;14240;51.064;16.612;2022-12-18T00:32:53;-2.30;99.90
26599;DHT22;14240;51.064;16.612;2022-12-18T00:35:18;-2.30;99.90
26599;DHT22;14240;51.064;16.612;2022-12-18T00:37:44;-2.30;99.90
26599;DHT22;14240;51.064;16.612;2022-12-18T00:40:11;-2.30;99.90
26599;DHT22;14240;51.064;16.612;2022-12-18T00:42:36;-2.30;99.90
26599;DHT22;14240;51.064;16.612;2022-12-18T00:45:21;-2.30;99.90
26599;DHT22;14240;51.064;16.612;2022-12-18T00:47:47;-2.30;99.90
26599;DHT22;14240;51.064;16.612;2022-12-18T00:50:12;-2.30;99.90
26599;DHT22;14240;51.064;16.612;2022-12-18T00:52:38;-2.20;99.90
26599;DHT22;14240;51.064;16.612;2022-12-18T00:55:04;-2.20;99.90
26599;DHT22;14240;51.064;16.612;2022-12-18T00:57:30;-2.20;99.90
26599;DHT22;14240;51.064;16.612;2022-12-18T00:59:56;-2.20;99.90
26599;DHT22;14240;51.064;16.612;2022-12-18T01:02:21;-2.20;99.90
26599;DHT22;14240;51.064;16.612;2022-12-18T01:04:47;-2.20;99.90
26599;DHT22;14240;51.064;16.612;2022-12-18T01:07:13;-2.20;99.90
26599;DHT22;14240;51.064;16.612;2022-12-18T01:09:38;-2.20;99.90
26599;DHT22;14240;51.064;16.612;2022-12-18T01:12:04;-2.20;99.90
26599;DHT22;14240;51.064;16.612;2022-12-18T01:14:30;-2.20;99.90
26599;DHT22;14240;51.064;16.612;2022-12-18T01:16:56;-2.20;99.90
26599;DHT22;14240;51.064;16.612;2022-12-18T01:19:23;-2.20;99.90
26599;DHT22;14240;51.064;16.612;2022-12-18T01:21:49;-2.40;99.90
26599;DHT22;14240;51.064;16.612;2022-12-18T01:24:15;-2.20;99.90
26599;DHT22;14240;51.064;16.612;2022-12-18T01:26:41;-2.10;99.90
26599;DHT22;14240;51.064;16.612;2022-12-18T01:29:06;-2.10;99.90
26599;DHT22;14240;51.064;16.612;2022-12-18T01:31:33;-2.20;99.90
26599;DHT22;14240;51.064;16.612;2022-12-18T01:34:04;-2.10;99.90
26599;DHT22;14240;51.064;16.612;2022-12-18T01:36:34;-2.10;99.90
26599;DHT22;14240;51.064;16.612;2022-12-18T01:39:02;-2.20;99.90
26599;DHT22;14240;51.064;16.612;2022-12-18T01:41:29;-2.20;99.90
26599;DHT22;14240;51.064;16.612;2022-12-18T01:47:29;-2.20;99.90
26599;DHT22;14240;51.064;16.612;2022-12-18T01:49:57;-2.20;99.90
26599;DHT22;14240;51.064;16.612;2022-12-18T01:52:26;-2.20;99.90
26599;DHT22;14240;51.064;16.612;2022-12-18T01:54:54;-2.20;99.90
26599;DHT22;14240;51.064;16.612;2022-12-18T01:57:21;-2.20;99.90
26599;DHT22;14240;51.064;16.612;2022-12-18T01:59:50;-2.20;99.90
26599;DHT22;14240;51.064;16.612;2022-12-18T02:02:18;-2.20;99.90
26599;DHT22;14240;51.064;16.612;2022-12-18T02:04:45;-2.10;99.90
26599;DHT22;14240;51.064;16.612;2022-12-18T02:10:13;-2.10;99.90
26599;DHT22;14240;51.064;16.612;2022-12-18T02:13:13;-2.10;99.90
26599;DHT22;14240;51.064;16.612;2022-12-18T02:18:19;-2.10;99.90
26599;DHT22;14240;51.064;16.612;2022-12-18T02:23:47;-2.00;99.90
26599;DHT22;14240;51.064;16.612;2022-12-18T02:26:22;-2.00;99.90
26599;DHT22;14240;51.064;16.612;2022-12-18T02:28:57;-2.10;99.90
26599;DHT22;14240;51.064;16.612;2022-12-18T02:31:28;-2.00;99.90
26599;DHT22;14240;51.064;16.612;2022-12-18T02:33:56;-2.00;99.90
26599;DHT22;14240;51.064;16.612;2022-12-18T02:36:25;-2.10;99.90
26599;DHT22;14240;51.064;16.612;2022-12-18T02:38:52;-2.00;99.90
26599;DHT22;14240;51.064;16.612;2022-12-18T02:41:19;-2.00;99.90
26599;DHT22;14240;51.064;16.612;2022-12-18T02:43:57;-1.40;99.90
26599;DHT22;14240;51.064;16.612;2022-12-18T02:46:38;-2.00;99.90
26599;DHT22;14240;51.064;16.612;2022-12-18T02:57:19;-2.00;99.90
26599;DHT22;14240;51.064;16.612;2022-12-18T03:03:10;-1.90;99.90
26599;DHT22;14240;51.064;16.612;2022-12-18T03:05:49;-1.90;99.90
26599;DHT22;14240;51.064;16.612;2022-12-18T03:08:30;-1.90;99.90
26599;DHT22;14240;51.064;16.612;2022-12-18T03:11:09;-1.90;99.90
26599;DHT22;14240;51.064;16.612;2022-12-18T03:13:54;-1.90;99.90
26599;DHT22;14240;51.064;16.612;2022-12-18T03:16:28;-1.90;99.90
26599;DHT22;14240;51.064;16.612;2022-12-18T03:19:00;-1.90;99.90
26599;DHT22;14240;51.064;16.612;2022-12-18T03:21:33;-1.90;99.90
26599;DHT22;14240;51.064;16.612;2022-12-18T03:24:01;-1.90;99.90
26599;DHT22;14240;51.064;16.612;2022-12-18T03:26:29;-1.90;99.90
26599;DHT22;14240;51.064;16.612;2022-12-18T03:29:02;-1.90;99.90
26599;DHT22;14240;51.064;16.612;2022-12-18T03:31:30;-1.90;99.90
26599;DHT22;14240;51.064;16.612;2022-12-18T03:34:04;-1.90;99.90
26599;DHT22;14240;51.064;16.612;2022-12-18T03:36:31;-1.90;99.90
26599;DHT22;14240;51.064;16.612;2022-12-18T03:38:57;-1.90;99.90
26599;DHT22;14240;51.064;16.612;2022-12-18T03:46:40;-2.00;99.90
26599;DHT22;14240;51.064;16.612;2022-12-18T03:52:07;-1.90;99.90
26599;DHT22;14240;51.064;16.612;2022-12-18T03:54:35;-2.00;99.90
26599;DHT22;14240;51.064;16.612;2022-12-18T03:57:10;-2.00;99.90
26599;DHT22;14240;51.064;16.612;2022-12-18T03:59:38;-2.00;99.90
26599;DHT22;14240;51.064;16.612;2022-12-18T04:02:06;-2.00;99.90
26599;DHT22;14240;51.064;16.612;2022-12-18T04:04:34;-1.90;99.90
26599;DHT22;14240;51.064;16.612;2022-12-18T04:07:00;-2.00;99.90
26599;DHT22;14240;51.064;16.612;2022-12-18T04:09:27;-2.00;99.90
26599;DHT22;14240;51.064;16.612;2022-12-18T04:11:54;-2.00;99.90
26599;DHT22;14240;51.064;16.612;2022-12-18T04:14:19;-2.10;99.90
26599;DHT22;14240;51.064;16.612;2022-12-18T04:16:45;-2.10;99.90
26599;DHT22;14240;51.064;16.612;2022-12-18T04:19:11;-2.10;99.90
26599;DHT22;14240;51.064;16.612;2022-12-18T04:21:36;-2.10;99.90
26599;DHT22;14240;51.064;16.612;2022-12-18T04:24:02;-2.10;99.90
26599;DHT22;14240;51.064;16.612;2022-12-18T04:26:28;-2.10;99.90
26599;DHT22;14240;51.064;16.612;2022-12-18T04:28:54;-2.10;99.90
26599;DHT22;14240;51.064;16.612;2022-12-18T04:31:19;-2.10;99.90
26599;DHT22;14240;51.064;16.612;2022-12-18T04:33:45;-2.10;99.90
26599;DHT22;14240;51.064;16.612;2022-12-18T04:36:11;-2.00;99.90
26599;DHT22;14240;51.064;16.612;2022-12-18T04:38:37;-2.10;99.90
26599;DHT22;14240;51.064;16.612;2022-12-18T04:41:03;-2.00;99.90
26599;DHT22;14240;51.064;16.612;2022-12-18T04:43:29;-2.00;99.90
26599;DHT22;14240;51.064;16.612;2022-12-18T04:46:05;-2.00;99.90
26599;DHT22;14240;51.064;16.612;2022-12-18T04:48:31;-2.10;99.90
26599;DHT22;14240;51.064;16.612;2022-12-18T04:50:57;-2.10;99.90
26599;DHT22;14240;51.064;16.612;2022-12-18T04:53:22;-2.10;99.90
26599;DHT22;14240;51.064;16.612;2022-12-18T04:55:48;-2.10;99.90
26599;DHT22;14240;51.064;16.612;2022-12-18T04:58:14;-2.10;99.90
26599;DHT22;14240;51.064;16.612;2022-12-18T05:00:40;-2.10;99.90
26599;DHT22;14240;51.064;16.612;2022-12-18T05:03:06;-2.10;99.90
26599;DHT22;14240;51.064;16.612;2022-12-18T05:05:31;-2.10;99.90
26599;DHT22;14240;51.064;16.612;2022-12-18T05:07:59;-2.10;99.90
26599;DHT22;14240;51.064;16.612;2022-12-18T05:10:25;-2.10;99.90
26599;DHT22;14240;51.064;16.612;2022-12-18T05:12:50;-2.10;99.90
26599;DHT22;14240;51.064;16.612;2022-12-18T05:15:30;-1.30;99.90
26599;DHT22;14240;51.064;16.612;2022-12-18T05:17:57;-2.20;99.90
26599;DHT22;14240;51.064;16.612;2022-12-18T05:20:23;-2.20;99.90
26599;DHT22;14240;51.064;16.612;2022-12-18T05:22:50;-2.10;99.90
26599;DHT22;14240;51.064;16.612;2022-12-18T05:25:16;-2.20;99.90
26599;DHT22;14240;51.064;16.612;2022-12-18T05:27:42;-2.30;99.90
26599;DHT22;14240;51.064;16.612;2022-12-18T05:30:09;-2.30;99.90
26599;DHT22;14240;51.064;16.612;2022-12-18T05:32:35;-2.30;99.90
26599;DHT22;14240;51.064;16.612;2022-12-18T05:35:01;-2.30;99.90
26599;DHT22;14240;51.064;16.612;2022-12-18T05:37:26;-2.20;99.90
26599;DHT22;14240;51.064;16.612;2022-12-18T05:39:52;-2.40;99.90
26599;DHT22;14240;51.064;16.612;2022-12-18T05:42:18;-2.40;99.90
26599;DHT22;14240;51.064;16.612;2022-12-18T05:44:44;-2.40;99.90
26599;DHT22;14240;51.064;16.612;2022-12-18T05:47:09;-2.40;99.90
26599;DHT22;14240;51.064;16.612;2022-12-18T05:49:35;-2.40;99.90
26599;DHT22;14240;51.064;16.612;2022-12-18T05:52:01;-2.40;99.90
26599;DHT22;14240;51.064;16.612;2022-12-18T05:54:27;-2.50;99.90
26599;DHT22;14240;51.064;16.612;2022-12-18T05:56:53;-2.40;99.90
26599;DHT22;14240;51.064;16.612;2022-12-18T05:59:19;-2.50;99.90
26599;DHT22;14240;51.064;16.612;2022-12-18T06:01:45;-2.50;99.90
26599;DHT22;14240;51.064;16.612;2022-12-18T06:04:11;-2.50;99.90
26599;DHT22;14240;51.064;16.612;2022-12-18T06:06:37;-2.50;99.90
26599;DHT22;14240;51.064;16.612;2022-12-18T06:09:03;-2.50;99.90
26599;DHT22;14240;51.064;16.612;2022-12-18T06:11:34;-2.60;99.90
26599;DHT22;14240;51.064;16.612;2022-12-18T06:14:00;-2.60;99.90
26599;DHT22;14240;51.064;16.612;2022-12-18T06:16:27;-2.60;99.90
26599;DHT22;14240;51.064;16.612;2022-12-18T06:18:59;-2.60;99.90
26599;DHT22;14240;51.064;16.612;2022-12-18T06:21:25;-2.70;99.90
26599;DHT22;14240;51.064;16.612;2022-12-18T06:23:51;-2.70;99.90
26599;DHT22;14240;51.064;16.612;2022-12-18T06:26:17;-2.70;99.90
26599;DHT22;14240;51.064;16.612;2022-12-18T06:28:43;-2.70;99.90
26599;DHT22;14240;51.064;16.612;2022-12-18T06:31:09;-2.70;99.90
26599;DHT22;14240;51.064;16.612;2022-12-18T06:33:35;-2.70;99.90
26599;DHT22;14240;51.064;16.612;2022-12-18T06:36:04;-2.70;99.90
26599;DHT22;14240;51.064;16.612;2022-12-18T06:38:31;-2.70;99.90
26599;DHT22;14240;51.064;16.612;2022-12-18T06:40:57;-2.70;99.90
26599;DHT22;14240;51.064;16.612;2022-12-18T06:43:23;-2.70;99.90
26599;DHT22;14240;51.064;16.612;2022-12-18T06:45:49;-2.70;99.90
26599;DHT22;14240;51.064;16.612;2022-12-18T06:48:19;-2.70;99.90
26599;DHT22;14240;51.064;16.612;2022-12-18T06:50:45;-2.70;99.90
26599;DHT22;14240;51.064;16.612;2022-12-18T06:53:11;-2.80;99.90
26599;DHT22;14240;51.064;16.612;2022-12-18T06:55:37;-2.80;99.90
26599;DHT22;14240;51.064;16.612;2022-12-18T06:58:02;-2.70;99.90
26599;DHT22;14240;51.064;16.612;2022-12-18T07:00:28;-2.70;99.90
26599;DHT22;14240;51.064;16.612;2022-12-18T07:02:54;-2.80;99.90
26599;DHT22;14240;51.064;16.612;2022-12-18T07:05:19;-2.80;99.90
26599;DHT22;14240;51.064;16.612;2022-12-18T07:07:45;-2.80;99.90
26599;DHT22;14240;51.064;16.612;2022-12-18T07:10:11;-2.80;99.90
26599;DHT22;14240;51.064;16.612;2022-12-18T07:12:37;-2.80;99.90
26599;DHT22;14240;51.064;16.612;2022-12-18T07:15:03;-2.90;99.90
26599;DHT22;14240;51.064;16.612;2022-12-18T07:17:29;-2.90;99.90
26599;DHT22;14240;51.064;16.612;2022-12-18T07:19:55;-2.90;99.90
26599;DHT22;14240;51.064;16.612;2022-12-18T07:22:20;-2.90;99.90
26599;DHT22;14240;51.064;16.612;2022-12-18T07:24:46;-2.90;99.90
26599;DHT22;14240;51.064;16.612;2022-12-18T07:27:12;-2.80;99.90
26599;DHT22;14240;51.064;16.612;2022-12-18T07:29:37;-3.00;99.90
26599;DHT22;14240;51.064;16.612;2022-12-18T07:32:03;-3.00;99.90
26599;DHT22;14240;51.064;16.612;2022-12-18T07:34:29;-2.90;99.90
26599;DHT22;14240;51.064;16.612;2022-12-18T07:36:55;-2.90;99.90
26599;DHT22;14240;51.064;16.612;2022-12-18T07:39:20;-2.90;99.90
26599;DHT22;14240;51.064;16.612;2022-12-18T07:41:46;-2.90;99.90
26599;DHT22;14240;51.064;16.612;2022-12-18T07:44:32;-2.90;99.90
26599;DHT22;14240;51.064;16.612;2022-12-18T07:46:57;-2.90;99.90
26599;DHT22;14240;51.064;16.612;2022-12-18T07:49:23;-2.90;99.90
26599;DHT22;14240;51.064;16.612;2022-12-18T07:51:56;-2.90;99.90
26599;DHT22;14240;51.064;16.612;2022-12-18T07:54:23;-2.90;99.90
26599;DHT22;14240;51.064;16.612;2022-12-18T07:56:49;-2.90;99.90
26599;DHT22;14240;51.064;16.612;2022-12-18T07:59:15;-2.90;99.90
26599;DHT22;14240;51.064;16.612;2022-12-18T08:01:40;-2.80;99.90
26599;DHT22;14240;51.064;16.612;2022-12-18T08:04:06;-2.80;99.90
26599;DHT22;14240;51.064;16.612;2022-12-18T08:06:32;-2.70;99.90
26599;DHT22;14240;51.064;16.612;2022-12-18T08:08:57;-2.70;99.90
26599;DHT22;14240;51.064;16.612;2022-12-18T08:11:25;-2.70;99.90
26599;DHT22;14240;51.064;16.612;2022-12-18T08:13:52;-2.00;99.90
26599;DHT22;14240;51.064;16.612;2022-12-18T08:16:18;-2.70;99.90
26599;DHT22;14240;51.064;16.612;2022-12-18T08:18:44;-2.60;99.90
26599;DHT22;14240;51.064;16.612;2022-12-18T08:21:11;-2.60;99.90
26599;DHT22;14240;51.064;16.612;2022-12-18T08:23:38;-2.60;99.90
26599;DHT22;14240;51.064;16.612;2022-12-18T08:26:04;-2.60;99.90
26599;DHT22;14240;51.064;16.612;2022-12-18T08:28:30;-2.60;99.90
26599;DHT22;14240;51.064;16.612;2022-12-18T08:30:55;-2.60;99.90
26599;DHT22;14240;51.064;16.612;2022-12-18T08:33:21;-2.60;99.90
26599;DHT22;14240;51.064;16.612;2022-12-18T08:35:47;-2.60;99.90
26599;DHT22;14240;51.064;16.612;2022-12-18T08:38:12;-2.50;99.90
26599;DHT22;14240;51.064;16.612;2022-12-18T08:40:38;-2.50;99.90
26599;DHT22;14240;51.064;16.612;2022-12-18T08:43:04;-2.50;99.90
26599;DHT22;14240;51.064;16.612;2022-12-18T08:45:48;-2.50;99.90
26599;DHT22;14240;51.064;16.612;2022-12-18T08:48:14;-2.50;99.90
26599;DHT22;14240;51.064;16.612;2022-12-18T08:50:40;-2.40;99.90
26599;DHT22;14240;51.064;16.612;2022-12-18T08:53:06;-2.20;99.90
26599;DHT22;14240;51.064;16.612;2022-12-18T08:55:32;-2.30;99.90
26599;DHT22;14240;51.064;16.612;2022-12-18T08:57:57;-2.20;99.90
26599;DHT22;14240;51.064;16.612;2022-12-18T09:00:23;-2.10;99.90
26599;DHT22;14240;51.064;16.612;2022-12-18T09:02:49;-2.00;99.90
26599;DHT22;14240;51.064;16.612;2022-12-18T09:05:15;-2.00;99.90
26599;DHT22;14240;51.064;16.612;2022-12-18T09:07:40;-1.90;99.90
26599;DHT22;14240;51.064;16.612;2022-12-18T09:10:06;-1.80;99.90
26599;DHT22;14240;51.064;16.612;2022-12-18T09:12:32;-1.70;99.90
26599;DHT22;14240;51.064;16.612;2022-12-18T09:14:58;-1.40;99.90
26599;DHT22;14240;51.064;16.612;2022-12-18T09:17:24;-0.90;99.90
26599;DHT22;14240;51.064;16.612;2022-12-18T09:19:50;-0.10;99.90
26599;DHT22;14240;51.064;16.612;2022-12-18T09:22:16;0.70;99.90
26599;DHT22;14240;51.064;16.612;2022-12-18T09:24:42;1.50;99.90
26599;DHT22;14240;51.064;16.612;2022-12-18T09:27:07;2.20;99.90
26599;DHT22;14240;51.064;16.612;2022-12-18T09:29:33;2.80;99.90
26599;DHT22;14240;51.064;16.612;2022-12-18T09:31:59;3.40;99.90
26599;DHT22;14240;51.064;16.612;2022-12-18T09:34:24;3.90;99.90
26599;DHT22;14240;51.064;16.612;2022-12-18T09:36:50;4.40;99.90
26599;DHT22;14240;51.064;16.612;2022-12-18T09:39:16;4.70;99.90
26599;DHT22;14240;51.064;16.612;2022-12-18T09:41:52;5.40;99.90
26599;DHT22;14240;51.064;16.612;2022-12-18T09:44:30;5.90;99.90
26599;DHT22;14240;51.064;16.612;2022-12-18T09:49:25;6.50;99.90
26599;DHT22;14240;51.064;16.612;2022-12-18T09:52:05;6.80;99.90
26599;DHT22;14240;51.064;16.612;2022-12-18T09:54:38;7.00;99.90
26599;DHT22;14240;51.064;16.612;2022-12-18T09:57:18;7.30;99.90
26599;DHT22;14240;51.064;16.612;2022-12-18T10:02:32;7.80;99.60
26599;DHT22;14240;51.064;16.612;2022-12-18T10:05:17;8.00;99.00
26599;DHT22;14240;51.064;16.612;2022-12-18T10:08:02;8.20;97.90
26599;DHT22;14240;51.064;16.612;2022-12-18T10:10:58;8.50;97.90
26599;DHT22;14240;51.064;16.612;2022-12-18T10:13:43;8.80;97.20
26599;DHT22;14240;51.064;16.612;2022-12-18T10:19:18;9.10;95.20
26599;DHT22;14240;51.064;16.612;2022-12-18T10:24:38;9.10;94.60
26599;DHT22;14240;51.064;16.612;2022-12-18T10:27:15;9.20;94.10
26599;DHT22;14240;51.064;16.612;2022-12-18T10:29:42;9.20;93.20
26599;DHT22;14240;51.064;16.612;2022-12-18T10:32:15;8.90;92.30
26599;DHT22;14240;51.064;16.612;2022-12-18T10:34:45;8.30;91.60
26599;DHT22;14240;51.064;16.612;2022-12-18T10:37:19;7.60;91.90
26599;DHT22;14240;51.064;16.612;2022-12-18T10:39:47;6.80;92.10
26599;DHT22;14240;51.064;16.612;2022-12-18T10:42:29;6.10;92.60
26599;DHT22;14240;51.064;16.612;2022-12-18T10:45:13;5.30;92.60
26599;DHT22;14240;51.064;16.612;2022-12-18T10:47:44;4.60;93.20
26599;DHT22;14240;51.064;16.612;2022-12-18T10:53:00;3.90;94.20
26599;DHT22;14240;51.064;16.612;2022-12-18T10:55:32;3.50;94.70
26599;DHT22;14240;51.064;16.612;2022-12-18T11:06:18;2.70;95.50
26599;DHT22;14240;51.064;16.612;2022-12-18T11:08:57;3.30;96.00
26599;DHT22;14240;51.064;16.612;2022-12-18T11:11:24;2.40;96.10
26599;DHT22;14240;51.064;16.612;2022-12-18T11:14:06;2.40;96.20
26599;DHT22;14240;51.064;16.612;2022-12-18T11:16:43;2.20;96.50
26599;DHT22;14240;51.064;16.612;2022-12-18T11:19:18;2.10;96.60
26599;DHT22;14240;51.064;16.612;2022-12-18T11:21:46;2.00;96.90
26599;DHT22;14240;51.064;16.612;2022-12-18T11:24:33;2.00;96.90
26599;DHT22;14240;51.064;16.612;2022-12-18T11:27:00;1.70;96.80
26599;DHT22;14240;51.064;16.612;2022-12-18T11:29:35;1.60;97.00
26599;DHT22;14240;51.064;16.612;2022-12-18T11:37:30;1.00;97.40
26599;DHT22;14240;51.064;16.612;2022-12-18T11:40:01;0.80;97.60
26599;DHT22;14240;51.064;16.612;2022-12-18T11:42:48;0.60;97.90
26599;DHT22;14240;51.064;16.612;2022-12-18T11:45:28;0.50;98.00
26599;DHT22;14240;51.064;16.612;2022-12-18T11:47:59;0.40;98.10
26599;DHT22;14240;51.064;16.612;2022-12-18T11:53:12;0.10;98.40
26599;DHT22;14240;51.064;16.612;2022-12-18T12:04:08;-0.60;99.60
26599;DHT22;14240;51.064;16.612;2022-12-18T12:09:53;-0.90;99.90
26599;DHT22;14240;51.064;16.612;2022-12-18T12:24:08;-1.60;99.90
26599;DHT22;14240;51.064;16.612;2022-12-18T12:32:35;-1.90;99.90
26599;DHT22;14240;51.064;16.612;2022-12-18T12:35:42;-1.90;99.90
26599;DHT22;14240;51.064;16.612;2022-12-18T12:38:16;-2.10;99.90
26599;DHT22;14240;51.064;16.612;2022-12-18T12:40:56;-2.30;99.90
26599;DHT22;14240;51.064;16.612;2022-12-18T12:43:38;-2.40;99.90
26599;DHT22;14240;51.064;16.612;2022-12-18T12:46:09;-2.50;99.90
26599;DHT22;14240;51.064;16.612;2022-12-18T12:53:46;-2.80;99.90
26599;DHT22;14240;51.064;16.612;2022-12-18T12:56:17;-2.90;99.90
26599;DHT22;14240;51.064;16.612;2022-12-18T12:59:22;-2.90;99.90
26599;DHT22;14240;51.064;16.612;2022-12-18T13:02:00;-3.00;99.90
26599;DHT22;14240;51.064;16.612;2022-12-18T13:04:56;-3.00;99.90
26599;DHT22;14240;51.064;16.612;2022-12-18T13:07:30;-3.00;99.90
26599;DHT22;14240;51.064;16.612;2022-12-18T13:15:43;-3.20;99.90
26599;DHT22;14240;51.064;16.612;2022-12-18T13:20:39;-3.30;99.90
26599;DHT22;14240;51.064;16.612;2022-12-18T13:31:14;-3.50;99.90
26599;DHT22;14240;51.064;16.612;2022-12-18T13:33:41;-3.60;99.90
26599;DHT22;14240;51.064;16.612;2022-12-18T13:36:27;-3.60;99.90
26599;DHT22;14240;51.064;16.612;2022-12-18T13:41:36;-3.80;99.90
26599;DHT22;14240;51.064;16.612;2022-12-18T13:44:31;-3.80;99.90
26599;DHT22;14240;51.064;16.612;2022-12-18T13:46:58;-3.80;99.90
26599;DHT22;14240;51.064;16.612;2022-12-18T13:49:39;-3.80;99.90
26599;DHT22;14240;51.064;16.612;2022-12-18T13:52:26;-3.90;99.90
26599;DHT22;14240;51.064;16.612;2022-12-18T13:54:56;-3.90;99.90
26599;DHT22;14240;51.064;16.612;2022-12-18T13:57:34;-4.00;99.90
26599;DHT22;14240;51.064;16.612;2022-12-18T14:00:24;-4.00;99.90
26599;DHT22;14240;51.064;16.612;2022-12-18T14:02:50;-4.10;99.90
26599;DHT22;14240;51.064;16.612;2022-12-18T14:05:28;-4.10;99.90
26599;DHT22;14240;51.064;16.612;2022-12-18T14:07:55;-4.20;99.90
26599;DHT22;14240;51.064;16.612;2022-12-18T14:10:24;-4.10;99.90
26599;DHT22;14240;51.064;16.612;2022-12-18T14:12:50;-4.30;99.90
26599;DHT22;14240;51.064;16.612;2022-12-18T14:15:32;-4.40;99.90
26599;DHT22;14240;51.064;16.612;2022-12-18T14:20:32;-4.60;99.90
26599;DHT22;14240;51.064;16.612;2022-12-18T14:22:58;-4.70;99.90
26599;DHT22;14240;51.064;16.612;2022-12-18T14:25:29;-4.70;99.90
26599;DHT22;14240;51.064;16.612;2022-12-18T14:30:42;-4.90;99.90
26599;DHT22;14240;51.064;16.612;2022-12-18T14:33:15;-4.90;99.90
26599;DHT22;14240;51.064;16.612;2022-12-18T14:36:02;-5.00;99.90
26599;DHT22;14240;51.064;16.612;2022-12-18T14:38:34;-5.10;99.90
26599;DHT22;14240;51.064;16.612;2022-12-18T14:43:35;-5.30;99.90
26599;DHT22;14240;51.064;16.612;2022-12-18T14:46:03;-5.40;99.90
26599;DHT22;14240;51.064;16.612;2022-12-18T14:51:03;-5.50;99.90
26599;DHT22;14240;51.064;16.612;2022-12-18T14:53:38;-5.60;99.90
26599;DHT22;14240;51.064;16.612;2022-12-18T14:56:20;-5.70;99.90
26599;DHT22;14240;51.064;16.612;2022-12-18T14:59:02;-5.80;99.90
26599;DHT22;14240;51.064;16.612;2022-12-18T15:04:00;-5.10;99.90
26599;DHT22;14240;51.064;16.612;2022-12-18T15:06:33;-5.90;99.90
26599;DHT22;14240;51.064;16.612;2022-12-18T15:09:02;-6.00;99.90
26599;DHT22;14240;51.064;16.612;2022-12-18T15:11:43;-6.00;99.90
26599;DHT22;14240;51.064;16.612;2022-12-18T15:14:24;-5.90;99.90
26599;DHT22;14240;51.064;16.612;2022-12-18T15:16:54;-6.10;99.90
26599;DHT22;14240;51.064;16.612;2022-12-18T15:19:22;-6.20;99.90
26599;DHT22;14240;51.064;16.612;2022-12-18T15:21:49;-6.20;99.90
26599;DHT22;14240;51.064;16.612;2022-12-18T15:24:22;-6.30;99.90
26599;DHT22;14240;51.064;16.612;2022-12-18T15:26:49;-6.40;99.90
26599;DHT22;14240;51.064;16.612;2022-12-18T15:29:22;-6.40;99.90
26599;DHT22;14240;51.064;16.612;2022-12-18T15:32:02;-6.50;99.90
26599;DHT22;14240;51.064;16.612;2022-12-18T15:34:29;-6.50;99.90
26599;DHT22;14240;51.064;16.612;2022-12-18T15:36:55;-6.50;99.90
26599;DHT22;14240;51.064;16.612;2022-12-18T15:39:20;-6.70;99.90
26599;DHT22;14240;51.064;16.612;2022-12-18T15:41:46;-6.70;99.90
26599;DHT22;14240;51.064;16.612;2022-12-18T15:44:31;-6.70;99.90
26599;DHT22;14240;51.064;16.612;2022-12-18T15:46:57;-6.60;99.90
26599;DHT22;14240;51.064;16.612;2022-12-18T15:49:23;-6.60;99.90
26599;DHT22;14240;51.064;16.612;2022-12-18T15:51:54;-6.70;99.90
26599;DHT22;14240;51.064;16.612;2022-12-18T15:54:22;-6.60;99.90
26599;DHT22;14240;51.064;16.612;2022-12-18T15:57:10;-6.70;99.90
26599;DHT22;14240;51.064;16.612;2022-12-18T15:59:55;-6.70;99.90
26599;DHT22;14240;51.064;16.612;2022-12-18T16:02:24;-6.80;99.90
26599;DHT22;14240;51.064;16.612;2022-12-18T16:04:51;-6.80;99.90
26599;DHT22;14240;51.064;16.612;2022-12-18T16:07:18;-6.90;99.90
26599;DHT22;14240;51.064;16.612;2022-12-18T16:09:44;-6.90;99.90
26599;DHT22;14240;51.064;16.612;2022-12-18T16:12:15;-6.90;99.90
26599;DHT22;14240;51.064;16.612;2022-12-18T16:14:42;-6.90;99.90
26599;DHT22;14240;51.064;16.612;2022-12-18T16:17:10;-6.90;99.90
26599;DHT22;14240;51.064;16.612;2022-12-18T16:19:36;-6.90;99.90
26599;DHT22;14240;51.064;16.612;2022-12-18T16:22:03;-6.90;99.90
26599;DHT22;14240;51.064;16.612;2022-12-18T16:24:30;-6.80;99.90
26599;DHT22;14240;51.064;16.612;2022-12-18T16:26:58;-6.70;99.90
26599;DHT22;14240;51.064;16.612;2022-12-18T16:29:26;-6.60;99.90
26599;DHT22;14240;51.064;16.612;2022-12-18T16:31:58;-6.60;99.90
26599;DHT22;14240;51.064;16.612;2022-12-18T16:34:25;-6.50;99.90
26599;DHT22;14240;51.064;16.612;2022-12-18T16:36:57;-6.40;99.90
26599;DHT22;14240;51.064;16.612;2022-12-18T16:39:24;-6.40;99.90
26599;DHT22;14240;51.064;16.612;2022-12-18T16:41:50;-6.30;99.90
26599;DHT22;14240;51.064;16.612;2022-12-18T16:44:17;-6.10;99.90
26599;DHT22;14240;51.064;16.612;2022-12-18T16:46:43;-6.20;99.90
26599;DHT22;14240;51.064;16.612;2022-12-18T16:49:11;-6.10;99.90
26599;DHT22;14240;51.064;16.612;2022-12-18T16:51:37;-6.20;99.90
26599;DHT22;14240;51.064;16.612;2022-12-18T16:54:03;-6.10;99.90
26599;DHT22;14240;51.064;16.612;2022-12-18T16:56:30;-6.10;99.90
26599;DHT22;14240;51.064;16.612;2022-12-18T16:58:57;-6.20;99.90
26599;DHT22;14240;51.064;16.612;2022-12-18T17:01:24;-6.10;99.90
26599;DHT22;14240;51.064;16.612;2022-12-18T17:03:52;-6.20;99.90
26599;DHT22;14240;51.064;16.612;2022-12-18T17:06:18;-6.20;99.90
26599;DHT22;14240;51.064;16.612;2022-12-18T17:08:44;-6.20;99.90
26599;DHT22;14240;51.064;16.612;2022-12-18T17:11:10;-6.20;99.90
26599;DHT22;14240;51.064;16.612;2022-12-18T17:13:36;-6.20;99.90
26599;DHT22;14240;51.064;16.612;2022-12-18T17:16:05;-6.20;99.90
26599;DHT22;14240;51.064;16.612;2022-12-18T17:18:33;-6.20;99.90
26599;DHT22;14240;51.064;16.612;2022-12-18T17:21:03;-6.20;99.90
26599;DHT22;14240;51.064;16.612;2022-12-18T17:23:29;-6.20;99.90
26599;DHT22;14240;51.064;16.612;2022-12-18T17:25:56;-6.20;99.90
26599;DHT22;14240;51.064;16.612;2022-12-18T17:28:26;-6.20;99.90
26599;DHT22;14240;51.064;16.612;2022-12-18T17:30:53;-6.10;99.90
26599;DHT22;14240;51.064;16.612;2022-12-18T17:33:19;-6.10;99.90
26599;DHT22;14240;51.064;16.612;2022-12-18T17:35:45;-6.10;99.90
26599;DHT22;14240;51.064;16.612;2022-12-18T17:38:11;-6.10;99.90
26599;DHT22;14240;51.064;16.612;2022-12-18T17:40:37;-6.10;99.90